sensor_id;sensor_type;location;lat;lon;timestamp;P1;durP1;ratioP1;P2;durP2;ratioP2
3185;SDS011;1604;53.700;10.252;2024-01-15T00:00:36;2.10;;;1.47;;
3185;SDS011;1604;53.700;10.252;2024-01-15T00:03:38;4.93;;;1.90;;
3185;SDS011;1604;53.700;10.252;2024-01-15T00:06:40;6.63;;;2.13;;
3185;SDS011;1604;53.700;10.252;2024-01-15T00:09:42;15.13;;;2.70;;
3185;SDS011;1604;53.700;10.252;2024-01-15T00:12:44;3.87;;;1.93;;
3185;SDS011;1604;53.700;10.252;2024-01-15T00:15:47;7.87;;;1.90;;
3185;SDS011;1604;53.700;10.252;2024-01-15T00:18:49;3.73;;;2.60;;
3185;SDS011;1604;53.700;10.252;2024-01-15T00:21:51;11.93;;;2.30;;
3185;SDS011;1604;53.700;10.252;2024-01-15T00:24:53;23.17;;;2.83;;
3185;SDS011;1604;53.700;10.252;2024-01-15T00:27:55;8.87;;;1.90;;
3185;SDS011;1604;53.700;10.252;2024-01-15T00:30:58;8.47;;;1.77;;
3185;SDS011;1604;53.700;10.252;2024-01-15T00:34:00;9.60;;;2.00;;
3185;SDS011;1604;53.700;10.252;2024-01-15T00:37:02;5.90;;;2.73;;
3185;SDS011;1604;53.700;10.252;2024-01-15T00:40:07;8.27;;;1.40;;
3185;SDS011;1604;53.700;10.252;2024-01-15T00:43:09;8.23;;;2.37;;
3185;SDS011;1604;53.700;10.252;2024-01-15T00:46:13;8.47;;;2.30;;
3185;SDS011;1604;53.700;10.252;2024-01-15T00:49:15;6.47;;;1.80;;
3185;SDS011;1604;53.700;10.252;2024-01-15T00:52:17;5.40;;;1.53;;
3185;SDS011;1604;53.700;10.252;2024-01-15T00:55:19;6.23;;;1.97;;
3185;SDS011;1604;53.700;10.252;2024-01-15T00:58:21;3.60;;;1.77;;
3185;SDS011;1604;53.700;10.252;2024-01-15T01:01:24;9.90;;;2.00;;
3185;SDS011;1604;53.700;10.252;2024-01-15T01:04:26;6.37;;;2.10;;
3185;SDS011;1604;53.700;10.252;2024-01-15T01:07:28;11.00;;;2.17;;
3185;SDS011;1604;53.700;10.252;2024-01-15T01:10:30;7.80;;;1.43;;
3185;SDS011;1604;53.700;10.252;2024-01-15T01:13:31;9.87;;;2.67;;
3185;SDS011;1604;53.700;10.252;2024-01-15T01:16:35;8.50;;;1.83;;
3185;SDS011;1604;53.700;10.252;2024-01-15T01:19:38;3.67;;;1.87;;
3185;SDS011;1604;53.700;10.252;2024-01-15T01:22:41;9.70;;;1.80;;
3185;SDS011;1604;53.700;10.252;2024-01-15T01:25:43;7.20;;;1.80;;
3185;SDS011;1604;53.700;10.252;2024-01-15T01:28:45;3.73;;;1.47;;
3185;SDS011;1604;53.700;10.252;2024-01-15T01:31:48;8.03;;;1.63;;
3185;SDS011;1604;53.700;10.252;2024-01-15T01:34:50;12.83;;;3.10;;
3185;SDS011;1604;53.700;10.252;2024-01-15T01:37:52;7.63;;;1.77;;
3185;SDS011;1604;53.700;10.252;2024-01-15T01:40:54;8.57;;;2.00;;
3185;SDS011;1604;53.700;10.252;2024-01-15T01:43:56;7.80;;;2.00;;
3185;SDS011;1604;53.700;10.252;2024-01-15T01:47:00;3.50;;;1.20;;
3185;SDS011;1604;53.700;10.252;2024-01-15T01:50:03;12.47;;;2.30;;
3185;SDS011;1604;53.700;10.252;2024-01-15T01:53:05;7.73;;;1.80;;
3185;SDS011;1604;53.700;10.252;2024-01-15T01:56:09;3.77;;;1.07;;
3185;SDS011;1604;53.700;10.252;2024-01-15T01:59:12;13.03;;;2.30;;
3185;SDS011;1604;53.700;10.252;2024-01-15T02:02:16;3.77;;;1.10;;
3185;SDS011;1604;53.700;10.252;2024-01-15T02:05:18;3.27;;;1.40;;
3185;SDS011;1604;53.700;10.252;2024-01-15T02:08:22;4.10;;;1.23;;
3185;SDS011;1604;53.700;10.252;2024-01-15T02:11:24;6.33;;;2.00;;
3185;SDS011;1604;53.700;10.252;2024-01-15T02:14:26;6.83;;;1.80;;
3185;SDS011;1604;53.700;10.252;2024-01-15T02:17:29;14.30;;;2.33;;
3185;SDS011;1604;53.700;10.252;2024-01-15T02:20:31;2.60;;;1.50;;
3185;SDS011;1604;53.700;10.252;2024-01-15T02:23:35;4.57;;;1.40;;
3185;SDS011;1604;53.700;10.252;2024-01-15T02:26:37;3.20;;;1.87;;
3185;SDS011;1604;53.700;10.252;2024-01-15T02:29:39;5.37;;;1.40;;
3185;SDS011;1604;53.700;10.252;2024-01-15T02:32:41;1.47;;;0.87;;
3185;SDS011;1604;53.700;10.252;2024-01-15T02:35:43;35.67;;;2.70;;
3185;SDS011;1604;53.700;10.252;2024-01-15T02:38:47;9.77;;;1.73;;
3185;SDS011;1604;53.700;10.252;2024-01-15T02:41:49;7.43;;;2.83;;
3185;SDS011;1604;53.700;10.252;2024-01-15T02:44:51;3.13;;;1.10;;
3185;SDS011;1604;53.700;10.252;2024-01-15T02:47:53;22.80;;;2.53;;
3185;SDS011;1604;53.700;10.252;2024-01-15T02:50:55;13.40;;;2.10;;
3185;SDS011;1604;53.700;10.252;2024-01-15T02:53:58;3.87;;;1.30;;
3185;SDS011;1604;53.700;10.252;2024-01-15T02:57:01;11.50;;;2.10;;
3185;SDS011;1604;53.700;10.252;2024-01-15T03:00:03;7.70;;;1.87;;
3185;SDS011;1604;53.700;10.252;2024-01-15T03:03:07;6.83;;;1.70;;
3185;SDS011;1604;53.700;10.252;2024-01-15T03:06:09;23.27;;;2.77;;
3185;SDS011;1604;53.700;10.252;2024-01-15T03:09:13;7.80;;;1.50;;
3185;SDS011;1604;53.700;10.252;2024-01-15T03:12:15;29.33;;;2.00;;
3185;SDS011;1604;53.700;10.252;2024-01-15T03:15:18;8.10;;;1.13;;
3185;SDS011;1604;53.700;10.252;2024-01-15T03:18:20;6.30;;;1.50;;
3185;SDS011;1604;53.700;10.252;2024-01-15T03:21:22;10.90;;;1.77;;
3185;SDS011;1604;53.700;10.252;2024-01-15T03:24:25;6.47;;;1.00;;
3185;SDS011;1604;53.700;10.252;2024-01-15T03:27:27;11.63;;;2.10;;
3185;SDS011;1604;53.700;10.252;2024-01-15T03:30:29;6.73;;;2.30;;
3185;SDS011;1604;53.700;10.252;2024-01-15T03:33:31;15.20;;;2.63;;
3185;SDS011;1604;53.700;10.252;2024-01-15T03:36:33;5.53;;;1.83;;
3185;SDS011;1604;53.700;10.252;2024-01-15T03:39:36;14.87;;;1.67;;
3185;SDS011;1604;53.700;10.252;2024-01-15T03:42:38;17.97;;;1.73;;
3185;SDS011;1604;53.700;10.252;2024-01-15T03:45:40;10.13;;;2.60;;
3185;SDS011;1604;53.700;10.252;2024-01-15T03:48:42;6.20;;;2.13;;
3185;SDS011;1604;53.700;10.252;2024-01-15T03:51:44;13.50;;;2.23;;
3185;SDS011;1604;53.700;10.252;2024-01-15T03:54:47;21.37;;;2.50;;
3185;SDS011;1604;53.700;10.252;2024-01-15T03:57:49;12.30;;;2.23;;
3185;SDS011;1604;53.700;10.252;2024-01-15T04:00:51;9.60;;;1.87;;
3185;SDS011;1604;53.700;10.252;2024-01-15T04:03:54;14.20;;;3.00;;
3185;SDS011;1604;53.700;10.252;2024-01-15T04:06:56;6.53;;;2.07;;
3185;SDS011;1604;53.700;10.252;2024-01-15T04:09:59;11.97;;;2.00;;
3185;SDS011;1604;53.700;10.252;2024-01-15T04:13:01;17.50;;;2.30;;
3185;SDS011;1604;53.700;10.252;2024-01-15T04:16:03;8.93;;;2.80;;
3185;SDS011;1604;53.700;10.252;2024-01-15T04:19:06;13.03;;;3.30;;
3185;SDS011;1604;53.700;10.252;2024-01-15T04:22:08;9.53;;;3.70;;
3185;SDS011;1604;53.700;10.252;2024-01-15T04:25:11;15.53;;;3.10;;
3185;SDS011;1604;53.700;10.252;2024-01-15T04:28:13;23.80;;;2.73;;
3185;SDS011;1604;53.700;10.252;2024-01-15T04:31:24;15.67;;;3.20;;
3185;SDS011;1604;53.700;10.252;2024-01-15T04:34:27;28.47;;;2.97;;
3185;SDS011;1604;53.700;10.252;2024-01-15T04:37:29;10.30;;;3.70;;
3185;SDS011;1604;53.700;10.252;2024-01-15T04:40:32;20.13;;;3.47;;
3185;SDS011;1604;53.700;10.252;2024-01-15T04:43:34;15.20;;;3.10;;
3185;SDS011;1604;53.700;10.252;2024-01-15T04:46:36;12.10;;;2.53;;
3185;SDS011;1604;53.700;10.252;2024-01-15T04:49:37;11.47;;;2.40;;
3185;SDS011;1604;53.700;10.252;2024-01-15T04:52:39;17.30;;;3.40;;
3185;SDS011;1604;53.700;10.252;2024-01-15T04:55:43;17.57;;;3.00;;
3185;SDS011;1604;53.700;10.252;2024-01-15T04:58:45;20.63;;;4.63;;
3185;SDS011;1604;53.700;10.252;2024-01-15T05:01:47;9.93;;;3.83;;
3185;SDS011;1604;53.700;10.252;2024-01-15T05:04:49;17.40;;;3.03;;
3185;SDS011;1604;53.700;10.252;2024-01-15T05:07:51;22.33;;;4.00;;
3185;SDS011;1604;53.700;10.252;2024-01-15T05:10:54;16.40;;;3.13;;
3185;SDS011;1604;53.700;10.252;2024-01-15T05:13:56;36.90;;;4.20;;
3185;SDS011;1604;53.700;10.252;2024-01-15T05:16:58;15.43;;;4.97;;
3185;SDS011;1604;53.700;10.252;2024-01-15T05:20:00;11.63;;;2.70;;
3185;SDS011;1604;53.700;10.252;2024-01-15T05:23:03;19.43;;;4.23;;
3185;SDS011;1604;53.700;10.252;2024-01-15T05:26:06;18.23;;;5.53;;
3185;SDS011;1604;53.700;10.252;2024-01-15T05:29:09;22.77;;;3.67;;
3185;SDS011;1604;53.700;10.252;2024-01-15T05:32:11;14.73;;;4.37;;
3185;SDS011;1604;53.700;10.252;2024-01-15T05:35:13;17.17;;;3.20;;
3185;SDS011;1604;53.700;10.252;2024-01-15T05:38:15;20.90;;;4.30;;
3185;SDS011;1604;53.700;10.252;2024-01-15T05:41:18;22.60;;;5.83;;
3185;SDS011;1604;53.700;10.252;2024-01-15T05:44:20;15.90;;;3.30;;
3185;SDS011;1604;53.700;10.252;2024-01-15T05:47:22;21.37;;;3.40;;
3185;SDS011;1604;53.700;10.252;2024-01-15T05:50:24;18.57;;;4.23;;
3185;SDS011;1604;53.700;10.252;2024-01-15T05:53:26;25.57;;;4.73;;
3185;SDS011;1604;53.700;10.252;2024-01-15T05:56:32;20.80;;;3.73;;
3185;SDS011;1604;53.700;10.252;2024-01-15T05:59:34;26.33;;;4.70;;
3185;SDS011;1604;53.700;10.252;2024-01-15T06:02:37;40.90;;;6.53;;
3185;SDS011;1604;53.700;10.252;2024-01-15T06:05:38;12.87;;;4.73;;
3185;SDS011;1604;53.700;10.252;2024-01-15T06:08:40;25.10;;;4.53;;
3185;SDS011;1604;53.700;10.252;2024-01-15T06:11:44;17.33;;;4.33;;
3185;SDS011;1604;53.700;10.252;2024-01-15T06:14:46;27.10;;;4.77;;
3185;SDS011;1604;53.700;10.252;2024-01-15T06:17:48;15.53;;;3.07;;
3185;SDS011;1604;53.700;10.252;2024-01-15T06:20:49;18.53;;;5.27;;
3185;SDS011;1604;53.700;10.252;2024-01-15T06:23:51;25.87;;;4.20;;
3185;SDS011;1604;53.700;10.252;2024-01-15T06:26:55;13.03;;;3.27;;
3185;SDS011;1604;53.700;10.252;2024-01-15T06:29:56;18.53;;;2.87;;
3185;SDS011;1604;53.700;10.252;2024-01-15T06:32:58;17.10;;;2.40;;
3185;SDS011;1604;53.700;10.252;2024-01-15T06:36:00;18.03;;;5.43;;
3185;SDS011;1604;53.700;10.252;2024-01-15T06:39:02;31.30;;;3.17;;
3185;SDS011;1604;53.700;10.252;2024-01-15T06:42:06;14.63;;;3.83;;
3185;SDS011;1604;53.700;10.252;2024-01-15T06:45:08;11.00;;;2.80;;
3185;SDS011;1604;53.700;10.252;2024-01-15T06:48:10;22.60;;;6.60;;
3185;SDS011;1604;53.700;10.252;2024-01-15T06:51:15;19.53;;;3.40;;
3185;SDS011;1604;53.700;10.252;2024-01-15T06:54:17;15.07;;;3.00;;
3185;SDS011;1604;53.700;10.252;2024-01-15T06:57:21;27.20;;;4.70;;
3185;SDS011;1604;53.700;10.252;2024-01-15T07:00:23;17.23;;;3.17;;
3185;SDS011;1604;53.700;10.252;2024-01-15T07:03:24;10.83;;;3.40;;
3185;SDS011;1604;53.700;10.252;2024-01-15T07:06:26;24.77;;;4.97;;
3185;SDS011;1604;53.700;10.252;2024-01-15T07:09:28;11.37;;;2.67;;
3185;SDS011;1604;53.700;10.252;2024-01-15T07:12:32;8.60;;;2.17;;
3185;SDS011;1604;53.700;10.252;2024-01-15T07:15:33;10.93;;;2.40;;
3185;SDS011;1604;53.700;10.252;2024-01-15T07:18:35;8.37;;;2.20;;
3185;SDS011;1604;53.700;10.252;2024-01-15T07:21:37;3.87;;;1.30;;
3185;SDS011;1604;53.700;10.252;2024-01-15T07:24:42;3.57;;;1.20;;
3185;SDS011;1604;53.700;10.252;2024-01-15T07:27:46;18.17;;;1.90;;
3185;SDS011;1604;53.700;10.252;2024-01-15T07:30:48;6.57;;;2.03;;
3185;SDS011;1604;53.700;10.252;2024-01-15T07:33:50;12.30;;;1.50;;
3185;SDS011;1604;53.700;10.252;2024-01-15T07:36:51;12.00;;;1.30;;
3185;SDS011;1604;53.700;10.252;2024-01-15T07:39:53;19.27;;;2.60;;
3185;SDS011;1604;53.700;10.252;2024-01-15T07:42:57;12.00;;;1.50;;
3185;SDS011;1604;53.700;10.252;2024-01-15T07:45:58;21.27;;;1.90;;
3185;SDS011;1604;53.700;10.252;2024-01-15T07:49:00;3.27;;;1.80;;
3185;SDS011;1604;53.700;10.252;2024-01-15T07:52:03;8.67;;;1.13;;
3185;SDS011;1604;53.700;10.252;2024-01-15T07:55:06;12.80;;;1.93;;
3185;SDS011;1604;53.700;10.252;2024-01-15T07:58:09;15.63;;;2.77;;
3185;SDS011;1604;53.700;10.252;2024-01-15T08:01:11;8.67;;;1.30;;
3185;SDS011;1604;53.700;10.252;2024-01-15T08:04:13;13.87;;;2.00;;
3185;SDS011;1604;53.700;10.252;2024-01-15T08:07:15;3.70;;;1.50;;
3185;SDS011;1604;53.700;10.252;2024-01-15T08:10:17;7.80;;;1.43;;
3185;SDS011;1604;53.700;10.252;2024-01-15T08:13:21;2.13;;;1.93;;
3185;SDS011;1604;53.700;10.252;2024-01-15T08:16:23;2.07;;;1.03;;
3185;SDS011;1604;53.700;10.252;2024-01-15T08:19:25;6.77;;;1.27;;
3185;SDS011;1604;53.700;10.252;2024-01-15T08:22:27;3.67;;;1.63;;
3185;SDS011;1604;53.700;10.252;2024-01-15T08:25:29;6.10;;;1.53;;
3185;SDS011;1604;53.700;10.252;2024-01-15T08:28:32;5.20;;;1.60;;
3185;SDS011;1604;53.700;10.252;2024-01-15T08:31:34;5.13;;;1.30;;
3185;SDS011;1604;53.700;10.252;2024-01-15T08:34:36;16.73;;;1.67;;
3185;SDS011;1604;53.700;10.252;2024-01-15T08:37:38;12.50;;;2.40;;
3185;SDS011;1604;53.700;10.252;2024-01-15T08:40:40;6.67;;;1.53;;
3185;SDS011;1604;53.700;10.252;2024-01-15T08:43:43;15.73;;;1.60;;
3185;SDS011;1604;53.700;10.252;2024-01-15T08:46:45;14.03;;;1.67;;
3185;SDS011;1604;53.700;10.252;2024-01-15T08:49:47;8.53;;;1.60;;
3185;SDS011;1604;53.700;10.252;2024-01-15T08:52:49;4.60;;;1.37;;
3185;SDS011;1604;53.700;10.252;2024-01-15T08:55:51;9.37;;;1.23;;
3185;SDS011;1604;53.700;10.252;2024-01-15T08:58:54;7.13;;;1.60;;
3185;SDS011;1604;53.700;10.252;2024-01-15T09:01:56;11.23;;;2.03;;
3185;SDS011;1604;53.700;10.252;2024-01-15T09:04:58;6.67;;;1.47;;
3185;SDS011;1604;53.700;10.252;2024-01-15T09:08:00;5.87;;;1.30;;
3185;SDS011;1604;53.700;10.252;2024-01-15T09:11:03;6.33;;;1.93;;
3185;SDS011;1604;53.700;10.252;2024-01-15T09:14:06;9.10;;;2.43;;
3185;SDS011;1604;53.700;10.252;2024-01-15T09:17:09;6.13;;;1.40;;
3185;SDS011;1604;53.700;10.252;2024-01-15T09:20:11;10.53;;;2.33;;
3185;SDS011;1604;53.700;10.252;2024-01-15T09:23:13;12.73;;;1.83;;
3185;SDS011;1604;53.700;10.252;2024-01-15T09:26:15;12.70;;;1.87;;
3185;SDS011;1604;53.700;10.252;2024-01-15T09:29:18;7.60;;;2.00;;
3185;SDS011;1604;53.700;10.252;2024-01-15T09:32:20;10.67;;;1.80;;
3185;SDS011;1604;53.700;10.252;2024-01-15T09:35:22;3.47;;;1.63;;
3185;SDS011;1604;53.700;10.252;2024-01-15T09:38:24;5.37;;;1.53;;
3185;SDS011;1604;53.700;10.252;2024-01-15T09:41:27;17.23;;;4.30;;
3185;SDS011;1604;53.700;10.252;2024-01-15T09:44:30;12.47;;;2.53;;
3185;SDS011;1604;53.700;10.252;2024-01-15T09:47:33;9.03;;;2.70;;
3185;SDS011;1604;53.700;10.252;2024-01-15T09:50:35;6.20;;;2.17;;
3185;SDS011;1604;53.700;10.252;2024-01-15T09:53:37;6.07;;;1.17;;
3185;SDS011;1604;53.700;10.252;2024-01-15T09:56:40;5.87;;;1.37;;
3185;SDS011;1604;53.700;10.252;2024-01-15T09:59:43;7.60;;;1.63;;
3185;SDS011;1604;53.700;10.252;2024-01-15T10:02:46;9.97;;;1.53;;
3185;SDS011;1604;53.700;10.252;2024-01-15T10:05:48;13.30;;;1.70;;
3185;SDS011;1604;53.700;10.252;2024-01-15T10:08:51;4.80;;;1.47;;
3185;SDS011;1604;53.700;10.252;2024-01-15T10:11:53;17.90;;;2.20;;
3185;SDS011;1604;53.700;10.252;2024-01-15T10:14:57;10.30;;;2.07;;
3185;SDS011;1604;53.700;10.252;2024-01-15T10:17:59;6.33;;;1.50;;
3185;SDS011;1604;53.700;10.252;2024-01-15T10:21:01;12.60;;;2.00;;
3185;SDS011;1604;53.700;10.252;2024-01-15T10:24:04;15.30;;;3.13;;
3185;SDS011;1604;53.700;10.252;2024-01-15T10:27:07;6.47;;;2.80;;
3185;SDS011;1604;53.700;10.252;2024-01-15T10:30:11;9.17;;;2.30;;
3185;SDS011;1604;53.700;10.252;2024-01-15T10:33:14;7.70;;;1.47;;
3185;SDS011;1604;53.700;10.252;2024-01-15T10:36:25;11.00;;;2.30;;
3185;SDS011;1604;53.700;10.252;2024-01-15T10:39:27;12.53;;;2.30;;
3185;SDS011;1604;53.700;10.252;2024-01-15T10:42:30;11.60;;;3.50;;
3185;SDS011;1604;53.700;10.252;2024-01-15T10:45:34;10.23;;;2.90;;
3185;SDS011;1604;53.700;10.252;2024-01-15T10:48:36;10.40;;;2.97;;
3185;SDS011;1604;53.700;10.252;2024-01-15T10:51:37;11.53;;;3.90;;
3185;SDS011;1604;53.700;10.252;2024-01-15T10:54:39;24.33;;;5.70;;
3185;SDS011;1604;53.700;10.252;2024-01-15T10:57:44;35.20;;;3.07;;
3185;SDS011;1604;53.700;10.252;2024-01-15T11:00:48;15.80;;;3.30;;
3185;SDS011;1604;53.700;10.252;2024-01-15T11:03:50;9.10;;;2.60;;
3185;SDS011;1604;53.700;10.252;2024-01-15T11:06:53;13.93;;;2.90;;
3185;SDS011;1604;53.700;10.252;2024-01-15T11:09:56;5.93;;;1.53;;
3185;SDS011;1604;53.700;10.252;2024-01-15T11:12:59;15.83;;;2.10;;
3185;SDS011;1604;53.700;10.252;2024-01-15T11:16:05;10.07;;;1.90;;
3185;SDS011;1604;53.700;10.252;2024-01-15T11:19:08;9.70;;;2.10;;
3185;SDS011;1604;53.700;10.252;2024-01-15T11:25:49;6.53;;;3.87;;
3185;SDS011;1604;53.700;10.252;2024-01-15T11:28:51;15.93;;;2.80;;
3185;SDS011;1604;53.700;10.252;2024-01-15T11:31:58;7.47;;;2.70;;
3185;SDS011;1604;53.700;10.252;2024-01-15T11:35:01;11.57;;;5.03;;
3185;SDS011;1604;53.700;10.252;2024-01-15T11:38:06;7.10;;;2.90;;
3185;SDS011;1604;53.700;10.252;2024-01-15T11:41:13;6.37;;;2.73;;
3185;SDS011;1604;53.700;10.252;2024-01-15T11:44:16;16.80;;;5.40;;
3185;SDS011;1604;53.700;10.252;2024-01-15T11:47:23;2.80;;;2.23;;
3185;SDS011;1604;53.700;10.252;2024-01-15T11:50:48;10.73;;;2.47;;
3185;SDS011;1604;53.700;10.252;2024-01-15T11:53:51;6.70;;;2.07;;
3185;SDS011;1604;53.700;10.252;2024-01-15T11:56:57;2.93;;;1.80;;
3185;SDS011;1604;53.700;10.252;2024-01-15T12:00:03;16.23;;;3.40;;
3185;SDS011;1604;53.700;10.252;2024-01-15T12:03:07;16.47;;;6.80;;
3185;SDS011;1604;53.700;10.252;2024-01-15T12:06:10;6.73;;;2.10;;
3185;SDS011;1604;53.700;10.252;2024-01-15T12:09:12;4.07;;;1.90;;
3185;SDS011;1604;53.700;10.252;2024-01-15T12:12:16;5.30;;;3.20;;
3185;SDS011;1604;53.700;10.252;2024-01-15T12:15:26;15.30;;;1.90;;
3185;SDS011;1604;53.700;10.252;2024-01-15T12:18:30;3.67;;;1.00;;
3185;SDS011;1604;53.700;10.252;2024-01-15T12:21:33;3.93;;;1.43;;
3185;SDS011;1604;53.700;10.252;2024-01-15T12:24:35;2.87;;;1.50;;
3185;SDS011;1604;53.700;10.252;2024-01-15T12:27:37;4.10;;;2.40;;
3185;SDS011;1604;53.700;10.252;2024-01-15T12:30:39;2.77;;;1.50;;
3185;SDS011;1604;53.700;10.252;2024-01-15T12:33:42;4.50;;;1.67;;
3185;SDS011;1604;53.700;10.252;2024-01-15T12:36:45;5.10;;;1.10;;
3185;SDS011;1604;53.700;10.252;2024-01-15T12:39:48;9.23;;;1.40;;
3185;SDS011;1604;53.700;10.252;2024-01-15T12:42:50;2.10;;;1.30;;
3185;SDS011;1604;53.700;10.252;2024-01-15T12:45:52;3.83;;;1.23;;
3185;SDS011;1604;53.700;10.252;2024-01-15T12:48:57;6.40;;;1.37;;
3185;SDS011;1604;53.700;10.252;2024-01-15T12:51:59;4.70;;;1.40;;
3185;SDS011;1604;53.700;10.252;2024-01-15T12:55:01;2.37;;;0.90;;
3185;SDS011;1604;53.700;10.252;2024-01-15T12:58:03;3.37;;;1.20;;
3185;SDS011;1604;53.700;10.252;2024-01-15T13:01:05;2.63;;;0.80;;
3185;SDS011;1604;53.700;10.252;2024-01-15T13:04:08;1.50;;;1.10;;
3185;SDS011;1604;53.700;10.252;2024-01-15T13:07:11;5.17;;;1.43;;
3185;SDS011;1604;53.700;10.252;2024-01-15T13:10:13;3.00;;;1.77;;
3185;SDS011;1604;53.700;10.252;2024-01-15T13:13:15;3.90;;;1.07;;
3185;SDS011;1604;53.700;10.252;2024-01-15T13:16:17;3.33;;;1.13;;
3185;SDS011;1604;53.700;10.252;2024-01-15T13:19:22;5.47;;;1.53;;
3185;SDS011;1604;53.700;10.252;2024-01-15T13:22:24;3.63;;;1.30;;
3185;SDS011;1604;53.700;10.252;2024-01-15T13:25:32;17.63;;;1.33;;
3185;SDS011;1604;53.700;10.252;2024-01-15T13:28:39;3.33;;;1.40;;
3185;SDS011;1604;53.700;10.252;2024-01-15T13:31:41;1.50;;;1.03;;
3185;SDS011;1604;53.700;10.252;2024-01-15T13:34:46;3.10;;;1.20;;
3185;SDS011;1604;53.700;10.252;2024-01-15T13:37:51;2.23;;;1.30;;
3185;SDS011;1604;53.700;10.252;2024-01-15T13:40:53;1.57;;;0.90;;
3185;SDS011;1604;53.700;10.252;2024-01-15T13:43:56;2.03;;;1.10;;
3185;SDS011;1604;53.700;10.252;2024-01-15T13:46:58;6.40;;;1.20;;
3185;SDS011;1604;53.700;10.252;2024-01-15T13:50:02;1.70;;;1.17;;
3185;SDS011;1604;53.700;10.252;2024-01-15T13:53:04;2.20;;;1.30;;
3185;SDS011;1604;53.700;10.252;2024-01-15T13:56:06;4.20;;;1.43;;
3185;SDS011;1604;53.700;10.252;2024-01-15T13:59:10;1.70;;;1.20;;
3185;SDS011;1604;53.700;10.252;2024-01-15T14:02:12;4.03;;;1.63;;
3185;SDS011;1604;53.700;10.252;2024-01-15T14:05:15;1.50;;;1.20;;
3185;SDS011;1604;53.700;10.252;2024-01-15T14:08:18;2.93;;;1.37;;
3185;SDS011;1604;53.700;10.252;2024-01-15T14:11:20;3.60;;;1.80;;
3185;SDS011;1604;53.700;10.252;2024-01-15T14:14:23;8.70;;;1.60;;
3185;SDS011;1604;53.700;10.252;2024-01-15T14:17:25;3.67;;;1.30;;
3185;SDS011;1604;53.700;10.252;2024-01-15T14:20:28;2.40;;;1.20;;
3185;SDS011;1604;53.700;10.252;2024-01-15T14:23:31;2.67;;;1.20;;
3185;SDS011;1604;53.700;10.252;2024-01-15T14:26:33;1.70;;;1.13;;
3185;SDS011;1604;53.700;10.252;2024-01-15T14:29:34;8.90;;;1.80;;
3185;SDS011;1604;53.700;10.252;2024-01-15T14:32:36;2.20;;;1.67;;
3185;SDS011;1604;53.700;10.252;2024-01-15T14:35:40;5.43;;;1.77;;
3185;SDS011;1604;53.700;10.252;2024-01-15T14:38:42;1.53;;;0.93;;
3185;SDS011;1604;53.700;10.252;2024-01-15T14:41:45;4.33;;;1.27;;
3185;SDS011;1604;53.700;10.252;2024-01-15T14:44:47;2.47;;;1.40;;
3185;SDS011;1604;53.700;10.252;2024-01-15T14:47:49;4.33;;;1.17;;
3185;SDS011;1604;53.700;10.252;2024-01-15T14:50:52;2.33;;;1.03;;
3185;SDS011;1604;53.700;10.252;2024-01-15T14:53:55;6.33;;;1.27;;
3185;SDS011;1604;53.700;10.252;2024-01-15T14:56:57;7.77;;;2.23;;
3185;SDS011;1604;53.700;10.252;2024-01-15T14:59:59;3.50;;;1.53;;
3185;SDS011;1604;53.700;10.252;2024-01-15T15:03:00;5.40;;;0.90;;
3185;SDS011;1604;53.700;10.252;2024-01-15T15:06:04;4.40;;;1.60;;
3185;SDS011;1604;53.700;10.252;2024-01-15T15:09:07;6.70;;;1.47;;
3185;SDS011;1604;53.700;10.252;2024-01-15T15:12:12;2.50;;;1.73;;
3185;SDS011;1604;53.700;10.252;2024-01-15T15:15:14;2.73;;;0.90;;
3185;SDS011;1604;53.700;10.252;2024-01-15T15:18:17;7.33;;;1.93;;
3185;SDS011;1604;53.700;10.252;2024-01-15T15:21:21;5.93;;;1.50;;
3185;SDS011;1604;53.700;10.252;2024-01-15T15:24:23;4.83;;;1.27;;
3185;SDS011;1604;53.700;10.252;2024-01-15T15:27:25;2.27;;;1.50;;
3185;SDS011;1604;53.700;10.252;2024-01-15T15:30:27;3.83;;;1.23;;
3185;SDS011;1604;53.700;10.252;2024-01-15T15:33:29;3.17;;;1.50;;
3185;SDS011;1604;53.700;10.252;2024-01-15T15:36:32;3.90;;;1.40;;
3185;SDS011;1604;53.700;10.252;2024-01-15T15:39:34;5.10;;;1.13;;
3185;SDS011;1604;53.700;10.252;2024-01-15T15:42:36;9.63;;;1.73;;
3185;SDS011;1604;53.700;10.252;2024-01-15T15:45:38;8.40;;;3.30;;
3185;SDS011;1604;53.700;10.252;2024-01-15T15:48:40;9.20;;;4.60;;
3185;SDS011;1604;53.700;10.252;2024-01-15T15:51:43;6.30;;;3.83;;
3185;SDS011;1604;53.700;10.252;2024-01-15T15:54:45;4.17;;;3.40;;
3185;SDS011;1604;53.700;10.252;2024-01-15T15:57:47;9.23;;;4.53;;
3185;SDS011;1604;53.700;10.252;2024-01-15T16:00:49;5.50;;;4.63;;
3185;SDS011;1604;53.700;10.252;2024-01-15T16:03:51;3.93;;;3.33;;
3185;SDS011;1604;53.700;10.252;2024-01-15T16:06:54;5.03;;;3.30;;
3185;SDS011;1604;53.700;10.252;2024-01-15T16:09:56;15.50;;;10.50;;
3185;SDS011;1604;53.700;10.252;2024-01-15T16:12:58;18.80;;;8.93;;
3185;SDS011;1604;53.700;10.252;2024-01-15T16:16:00;10.10;;;6.30;;
3185;SDS011;1604;53.700;10.252;2024-01-15T16:19:02;6.20;;;5.50;;
3185;SDS011;1604;53.700;10.252;2024-01-15T16:22:05;7.27;;;4.30;;
3185;SDS011;1604;53.700;10.252;2024-01-15T16:25:08;10.53;;;6.30;;
3185;SDS011;1604;53.700;10.252;2024-01-15T16:28:10;10.43;;;4.50;;
3185;SDS011;1604;53.700;10.252;2024-01-15T16:31:12;4.10;;;3.70;;
3185;SDS011;1604;53.700;10.252;2024-01-15T16:34:14;7.10;;;5.00;;
3185;SDS011;1604;53.700;10.252;2024-01-15T16:37:17;7.73;;;4.10;;
3185;SDS011;1604;53.700;10.252;2024-01-15T16:40:19;3.60;;;2.90;;
3185;SDS011;1604;53.700;10.252;2024-01-15T16:43:21;9.90;;;2.90;;
3185;SDS011;1604;53.700;10.252;2024-01-15T16:46:23;11.50;;;6.57;;
3185;SDS011;1604;53.700;10.252;2024-01-15T16:49:25;4.30;;;2.90;;
3185;SDS011;1604;53.700;10.252;2024-01-15T16:52:29;16.03;;;4.57;;
3185;SDS011;1604;53.700;10.252;2024-01-15T16:55:31;5.03;;;4.20;;
3185;SDS011;1604;53.700;10.252;2024-01-15T16:58:33;5.73;;;3.50;;
3185;SDS011;1604;53.700;10.252;2024-01-15T17:01:34;8.43;;;3.80;;
3185;SDS011;1604;53.700;10.252;2024-01-15T17:04:37;7.30;;;2.80;;
3185;SDS011;1604;53.700;10.252;2024-01-15T17:07:40;3.10;;;2.30;;
3185;SDS011;1604;53.700;10.252;2024-01-15T17:10:42;5.33;;;3.17;;
3185;SDS011;1604;53.700;10.252;2024-01-15T17:13:44;4.57;;;3.73;;
3185;SDS011;1604;53.700;10.252;2024-01-15T17:16:45;2.63;;;2.40;;
3185;SDS011;1604;53.700;10.252;2024-01-15T17:19:48;4.30;;;2.90;;
3185;SDS011;1604;53.700;10.252;2024-01-15T17:22:52;4.93;;;3.60;;
3185;SDS011;1604;53.700;10.252;2024-01-15T17:25:54;8.57;;;3.53;;
3185;SDS011;1604;53.700;10.252;2024-01-15T17:28:55;6.40;;;3.03;;
3185;SDS011;1604;53.700;10.252;2024-01-15T17:31:57;5.17;;;3.30;;
3185;SDS011;1604;53.700;10.252;2024-01-15T17:34:59;9.27;;;5.57;;
3185;SDS011;1604;53.700;10.252;2024-01-15T17:38:03;13.83;;;5.37;;
3185;SDS011;1604;53.700;10.252;2024-01-15T17:41:05;10.23;;;6.60;;
3185;SDS011;1604;53.700;10.252;2024-01-15T17:44:07;6.70;;;5.13;;
3185;SDS011;1604;53.700;10.252;2024-01-15T17:47:09;15.70;;;9.30;;
3185;SDS011;1604;53.700;10.252;2024-01-15T17:50:11;21.20;;;11.40;;
3185;SDS011;1604;53.700;10.252;2024-01-15T17:53:15;28.57;;;14.63;;
3185;SDS011;1604;53.700;10.252;2024-01-15T17:56:17;31.70;;;16.37;;
3185;SDS011;1604;53.700;10.252;2024-01-15T17:59:19;24.83;;;12.70;;
3185;SDS011;1604;53.700;10.252;2024-01-15T18:02:21;26.13;;;13.17;;
3185;SDS011;1604;53.700;10.252;2024-01-15T18:05:23;26.37;;;13.43;;
3185;SDS011;1604;53.700;10.252;2024-01-15T18:08:26;42.47;;;18.27;;
3185;SDS011;1604;53.700;10.252;2024-01-15T18:11:28;33.00;;;19.13;;
3185;SDS011;1604;53.700;10.252;2024-01-15T18:14:30;30.80;;;18.20;;
3185;SDS011;1604;53.700;10.252;2024-01-15T18:17:33;35.37;;;18.17;;
3185;SDS011;1604;53.700;10.252;2024-01-15T18:20:35;44.37;;;20.53;;
3185;SDS011;1604;53.700;10.252;2024-01-15T18:23:39;40.67;;;20.27;;
3185;SDS011;1604;53.700;10.252;2024-01-15T18:26:41;67.33;;;29.77;;
3185;SDS011;1604;53.700;10.252;2024-01-15T18:29:43;67.53;;;31.53;;
3185;SDS011;1604;53.700;10.252;2024-01-15T18:32:45;57.40;;;27.40;;